createdAt,value
2022-08-24T00:00:37.827Z,17.59
2022-08-24T00:03:07.241Z,17.47
2022-08-24T00:05:35.037Z,17.45
2022-08-24T00:08:02.869Z,17.52
2022-08-24T00:10:30.516Z,17.54
2022-08-24T00:12:58.578Z,17.42
2022-08-24T00:15:26.126Z,17.10
2022-08-24T00:17:53.648Z,17.15
2022-08-24T00:20:22.504Z,17.45
2022-08-24T00:22:50.486Z,17.50
2022-08-24T00:25:19.884Z,17.52
2022-08-24T00:27:48.128Z,17.53
2022-08-24T00:30:19.205Z,17.35
2022-08-24T00:32:48.362Z,17.39
2022-08-24T00:35:18.219Z,17.30
2022-08-24T00:37:48.325Z,17.33
2022-08-24T00:40:19.447Z,17.25
2022-08-24T00:42:47.918Z,17.34
2022-08-24T00:45:17.209Z,17.04
2022-08-24T00:47:48.146Z,17.13
2022-08-24T00:50:23.047Z,17.13
2022-08-24T00:52:56.647Z,17.18
2022-08-24T00:55:30.523Z,17.10
2022-08-24T00:58:02.309Z,17.28
2022-08-24T01:00:34.990Z,17.27
2022-08-24T01:03:06.833Z,17.27
2022-08-24T01:05:38.088Z,17.01
2022-08-24T01:08:08.938Z,16.96
2022-08-24T01:10:41.045Z,17.14
2022-08-24T01:13:12.135Z,17.25
2022-08-24T01:15:42.741Z,17.29
2022-08-24T01:18:33.527Z,17.30
2022-08-24T01:21:16.315Z,17.25
2022-08-24T01:23:47.938Z,17.19
2022-08-24T01:26:19.183Z,17.10
2022-08-24T01:28:50.148Z,16.96
2022-08-24T01:31:22.093Z,16.95
2022-08-24T01:33:51.328Z,17.03
2022-08-24T01:36:28.463Z,17.07
2022-08-24T01:39:02.167Z,17.09
2022-08-24T01:41:29.709Z,17.01
2022-08-24T01:43:58.933Z,17.01
2022-08-24T01:46:26.718Z,17.02
2022-08-24T01:48:54.324Z,16.98
2022-08-24T01:51:22.007Z,16.99
2022-08-24T01:53:49.899Z,16.99
2022-08-24T01:56:18.759Z,16.93
2022-08-24T01:58:47.272Z,16.89
2022-08-24T02:01:16.309Z,16.75
2022-08-24T02:03:44.040Z,16.74
2022-08-24T02:06:11.602Z,16.83
2022-08-24T02:08:39.783Z,16.84
2022-08-24T02:11:09.299Z,16.98
2022-08-24T02:13:39.145Z,17.02
2022-08-24T02:16:07.486Z,16.94
2022-08-24T02:18:35.430Z,16.79
2022-08-24T02:21:03.046Z,16.60
2022-08-24T02:23:30.693Z,16.85
2022-08-24T02:25:58.206Z,16.84
2022-08-24T02:28:25.711Z,16.90
2022-08-24T02:30:54.602Z,16.93
2022-08-24T02:33:23.546Z,16.95
2022-08-24T02:35:51.147Z,17.00
2022-08-24T02:38:18.711Z,17.01
2022-08-24T02:40:46.588Z,17.02
2022-08-24T02:43:14.250Z,17.11
2022-08-24T02:45:47.190Z,17.15
2022-08-24T02:48:19.567Z,17.10
2022-08-24T02:50:49.203Z,17.17
2022-08-24T02:53:18.810Z,17.18
2022-08-24T02:55:46.623Z,17.15
2022-08-24T02:58:15.709Z,17.07
2022-08-24T03:00:45.048Z,16.99
2022-08-24T03:03:13.052Z,16.96
2022-08-24T03:05:42.034Z,16.95
2022-08-24T03:08:09.537Z,16.96
2022-08-24T03:10:37.096Z,17.01
2022-08-24T03:13:05.233Z,16.96
2022-08-24T03:15:33.065Z,16.99
2022-08-24T03:18:00.747Z,17.01
2022-08-24T03:20:28.317Z,16.93
2022-08-24T03:22:57.313Z,17.01
2022-08-24T03:25:26.567Z,16.98
2022-08-24T03:27:54.802Z,17.17
2022-08-24T03:30:23.769Z,17.15
2022-08-24T03:32:52.449Z,17.16
2022-08-24T03:35:21.789Z,17.07
2022-08-24T03:37:49.421Z,16.97
2022-08-24T03:40:22.915Z,16.85
2022-08-24T03:42:52.906Z,16.81
2022-08-24T03:45:21.469Z,16.81
2022-08-24T03:47:49.389Z,16.75
2022-08-24T03:50:16.898Z,16.76
2022-08-24T03:52:44.403Z,16.74
2022-08-24T03:55:13.232Z,16.73
2022-08-24T03:57:42.126Z,16.63
2022-08-24T04:00:13.542Z,16.68
2022-08-24T04:02:41.118Z,16.77
2022-08-24T04:05:09.643Z,16.67
2022-08-24T04:07:37.130Z,16.68
2022-08-24T04:10:05.007Z,16.84
2022-08-24T04:12:32.507Z,17.00
2022-08-24T04:15:01.594Z,16.86
2022-08-24T04:17:30.267Z,17.00
2022-08-24T04:20:00.900Z,17.18
2022-08-24T04:22:30.473Z,17.31
2022-08-24T04:24:58.547Z,17.36
2022-08-24T04:27:26.160Z,17.36
2022-08-24T04:29:53.857Z,17.36
2022-08-24T04:32:22.696Z,17.43
2022-08-24T04:34:50.192Z,17.49
2022-08-24T04:37:18.351Z,17.71
2022-08-24T04:39:53.211Z,17.82
2022-08-24T04:42:20.911Z,17.70
2022-08-24T04:44:48.403Z,17.20
2022-08-24T04:47:15.929Z,17.26
2022-08-24T04:49:44.832Z,17.24
2022-08-24T04:52:12.381Z,17.79
2022-08-24T04:54:39.885Z,17.86
2022-08-24T04:57:07.397Z,17.79
2022-08-24T04:59:34.903Z,17.79
2022-08-24T05:02:02.475Z,18.06
2022-08-24T05:04:30.076Z,18.34
2022-08-24T05:07:00.182Z,19.11
2022-08-24T05:09:27.679Z,19.73
2022-08-24T05:11:55.571Z,19.79
2022-08-24T05:14:28.012Z,20.39
2022-08-24T05:16:56.297Z,21.42
2022-08-24T05:19:24.595Z,22.74
2022-08-24T05:21:52.570Z,24.02
2022-08-24T05:24:21.434Z,24.17
2022-08-24T05:26:48.990Z,24.70
2022-08-24T05:29:18.942Z,25.24
2022-08-24T05:31:47.363Z,25.19
2022-08-24T05:34:15.486Z,25.49
2022-08-24T05:36:43.893Z,25.69
2022-08-24T05:39:13.775Z,25.46
2022-08-24T05:41:45.271Z,25.56
2022-08-24T05:44:14.044Z,25.16
2022-08-24T05:46:41.702Z,25.81
2022-08-24T05:49:09.452Z,25.70
2022-08-24T05:51:37.663Z,26.07
2022-08-24T05:54:06.339Z,26.78
2022-08-24T05:56:33.840Z,27.44
2022-08-24T05:59:03.838Z,29.34
2022-08-24T06:01:31.558Z,30.58
2022-08-24T06:04:00.112Z,31.23
2022-08-24T06:06:28.231Z,31.31
2022-08-24T06:08:57.994Z,32.41
2022-08-24T06:11:30.764Z,32.38
2022-08-24T06:14:01.642Z,32.69
2022-08-24T06:16:30.951Z,30.21
2022-08-24T06:18:58.465Z,29.48
2022-08-24T06:21:28.702Z,28.86
2022-08-24T06:23:57.064Z,28.16
2022-08-24T06:26:42.282Z,26.90
2022-08-24T06:29:10.875Z,26.47
2022-08-24T06:31:42.377Z,26.31
2022-08-24T06:34:12.047Z,25.94
2022-08-24T06:36:40.231Z,25.86
2022-08-24T06:39:08.620Z,25.06
2022-08-24T06:41:38.140Z,24.80
2022-08-24T06:44:06.706Z,24.68
2022-08-24T06:46:36.207Z,25.16
2022-08-24T06:49:05.388Z,26.18
2022-08-24T06:51:33.426Z,27.66
2022-08-24T06:54:01.349Z,27.95
2022-08-24T06:56:28.873Z,27.73
2022-08-24T06:58:56.636Z,26.31
2022-08-24T07:01:26.011Z,25.36
2022-08-24T07:03:53.794Z,26.54
2022-08-24T07:06:23.143Z,26.21
2022-08-24T07:08:51.665Z,26.68
2022-08-24T07:11:21.980Z,27.40
2022-08-24T07:13:50.868Z,27.26
2022-08-24T07:16:20.125Z,26.56
2022-08-24T07:18:50.260Z,26.78
2022-08-24T07:21:19.455Z,27.29
2022-08-24T07:23:49.103Z,27.54
2022-08-24T07:26:21.793Z,28.10
2022-08-24T07:28:50.165Z,27.47
2022-08-24T07:31:17.807Z,27.83
2022-08-24T07:33:45.727Z,28.60
2022-08-24T07:36:17.055Z,28.89
2022-08-24T07:38:53.111Z,28.40
2022-08-24T07:41:56.649Z,28.99
2022-08-24T07:44:15.455Z,28.85
2022-08-24T07:46:43.658Z,28.85
2022-08-24T07:49:29.353Z,28.70
2022-08-24T07:51:59.880Z,30.16
2022-08-24T07:54:29.687Z,31.89
2022-08-24T07:56:59.958Z,33.88
2022-08-24T07:59:27.475Z,35.36
2022-08-24T08:01:55.028Z,35.63
2022-08-24T08:04:25.150Z,35.04
2022-08-24T08:06:52.733Z,34.56
2022-08-24T08:09:20.317Z,34.28
2022-08-24T08:11:49.296Z,35.34
2022-08-24T08:14:16.827Z,36.04
2022-08-24T08:16:44.384Z,37.12
2022-08-24T08:19:11.948Z,37.48
2022-08-24T08:22:00.547Z,38.07
2022-08-24T08:24:28.308Z,33.78
2022-08-24T08:26:59.233Z,32.13
2022-08-24T08:29:27.217Z,32.73
2022-08-24T08:31:55.500Z,33.43
2022-08-24T08:34:23.058Z,34.41
2022-08-24T08:36:51.242Z,34.08
2022-08-24T08:39:20.745Z,30.91
2022-08-24T08:42:14.904Z,29.06
2022-08-24T08:44:53.179Z,30.39
2022-08-24T08:47:45.550Z,30.93
2022-08-24T08:50:16.960Z,29.68
2022-08-24T08:53:25.454Z,31.65
2022-08-24T08:56:03.766Z,32.04
2022-08-24T08:58:57.692Z,33.58
2022-08-24T09:01:36.210Z,33.42
2022-08-24T09:04:35.198Z,32.97
2022-08-24T09:07:16.628Z,31.89
2022-08-24T09:10:20.954Z,28.83
2022-08-24T09:13:02.783Z,27.35
2022-08-24T09:15:45.695Z,29.69
2022-08-24T09:18:26.732Z,31.49
2022-08-24T09:21:10.227Z,31.23
2022-08-24T09:23:52.560Z,29.23
2022-08-24T09:26:27.408Z,30.51
2022-08-24T09:29:05.419Z,31.11
2022-08-24T09:31:50.977Z,30.49
2022-08-24T09:34:28.639Z,27.86
2022-08-24T09:37:04.561Z,28.85
2022-08-24T09:39:53.627Z,29.77
2022-08-24T09:42:50.773Z,30.00
2022-08-24T09:45:37.014Z,29.15
2022-08-24T09:48:34.104Z,28.94
2022-08-24T09:51:24.532Z,28.28
2022-08-24T09:54:24.594Z,28.33
2022-08-24T09:57:13.750Z,28.62
2022-08-24T09:59:59.385Z,28.37
2022-08-24T10:02:45.871Z,28.06
2022-08-24T10:05:27.071Z,28.57
2022-08-24T10:08:05.062Z,28.65
2022-08-24T10:10:42.710Z,29.44
2022-08-24T10:13:24.114Z,29.71
2022-08-24T10:16:07.250Z,29.74
2022-08-24T10:18:46.013Z,30.64
2022-08-24T10:21:24.634Z,30.80
2022-08-24T10:24:07.896Z,31.53
2022-08-24T10:26:49.935Z,32.06
2022-08-24T10:29:33.698Z,32.37
2022-08-24T10:32:15.129Z,32.64
2022-08-24T10:35:01.149Z,32.17
2022-08-24T10:38:33.857Z,31.78
2022-08-24T10:41:21.385Z,31.02
2022-08-24T10:44:08.668Z,29.02
2022-08-24T10:46:49.026Z,27.70
2022-08-24T10:49:57.790Z,27.42
2022-08-24T10:52:54.056Z,26.79
2022-08-24T10:55:26.687Z,27.04
2022-08-24T10:58:08.174Z,27.38
2022-08-24T11:00:36.202Z,26.64
2022-08-24T11:03:13.076Z,25.78
2022-08-24T11:05:47.886Z,26.49
2022-08-24T11:08:21.980Z,27.07
2022-08-24T11:11:08.958Z,28.75
2022-08-24T11:13:50.245Z,28.47
2022-08-24T11:16:25.344Z,30.37
2022-08-24T11:18:55.812Z,30.67
2022-08-24T11:21:37.130Z,31.96
2022-08-24T11:24:08.571Z,34.33
2022-08-24T11:26:53.666Z,34.61
2022-08-24T11:29:27.330Z,33.02
2022-08-24T11:31:55.019Z,29.19
2022-08-24T11:34:33.584Z,27.04
2022-08-24T11:37:01.348Z,26.32
2022-08-24T11:39:33.763Z,25.80
2022-08-24T11:42:12.754Z,25.79
2022-08-24T11:44:49.685Z,25.44
2022-08-24T11:47:45.111Z,25.16
2022-08-24T11:50:25.333Z,25.26
2022-08-24T11:53:03.835Z,25.23
2022-08-24T11:55:47.449Z,25.83
2022-08-24T11:58:28.108Z,25.00
2022-08-24T12:01:05.878Z,25.00
2022-08-24T12:03:51.885Z,25.77
2022-08-24T12:06:32.521Z,25.94
2022-08-24T12:09:07.017Z,26.58
2022-08-24T12:11:41.554Z,26.99
2022-08-24T12:14:17.409Z,26.58
2022-08-24T12:16:55.836Z,26.94
2022-08-24T12:19:28.470Z,26.55
2022-08-24T12:21:58.942Z,26.01
2022-08-24T12:24:32.046Z,26.68
2022-08-24T12:27:04.278Z,26.83
2022-08-24T12:29:37.650Z,27.13
2022-08-24T12:32:11.225Z,27.80
2022-08-24T12:34:50.054Z,27.79
2022-08-24T12:37:23.188Z,28.00
2022-08-24T12:39:58.458Z,27.86
2022-08-24T12:42:33.858Z,28.03
2022-08-24T12:45:06.716Z,28.67
2022-08-24T12:47:43.575Z,28.64
2022-08-24T12:50:14.946Z,28.36
2022-08-24T12:53:12.154Z,27.70
2022-08-24T12:55:58.392Z,27.87
2022-08-24T12:58:54.529Z,28.24
2022-08-24T13:01:29.568Z,27.77
2022-08-24T13:04:09.236Z,27.70
2022-08-24T13:06:43.527Z,27.33
2022-08-24T13:09:17.911Z,27.47
2022-08-24T13:11:45.546Z,28.57
2022-08-24T13:14:20.905Z,28.98
2022-08-24T13:16:52.775Z,28.78
2022-08-24T13:19:38.599Z,29.25
2022-08-24T13:22:38.333Z,30.24
2022-08-24T13:25:25.550Z,31.21
2022-08-24T13:28:08.410Z,28.47
2022-08-24T13:31:19.205Z,28.01
2022-08-24T13:33:49.751Z,28.25
2022-08-24T13:36:55.915Z,27.52
2022-08-24T13:39:47.325Z,27.66
2022-08-24T13:42:30.318Z,28.34
2022-08-24T13:45:22.868Z,28.28
2022-08-24T13:48:04.027Z,28.76
2022-08-24T13:50:37.839Z,29.96
2022-08-24T13:53:30.858Z,30.72
2022-08-24T13:56:33.716Z,29.80
2022-08-24T13:59:09.650Z,29.17
2022-08-24T14:01:49.761Z,29.33
2022-08-24T14:04:32.918Z,29.57
2022-08-24T14:07:07.715Z,29.15
2022-08-24T14:09:47.118Z,30.00
2022-08-24T14:12:35.278Z,30.55
2022-08-24T14:15:19.136Z,30.94
2022-08-24T14:17:54.078Z,29.92
2022-08-24T14:20:44.051Z,28.24
2022-08-24T14:23:27.869Z,28.03
2022-08-24T14:26:28.706Z,28.37
2022-08-24T14:29:31.583Z,27.69
2022-08-24T14:32:27.808Z,27.57
2022-08-24T14:35:04.244Z,27.21
2022-08-24T14:37:56.788Z,27.59
2022-08-24T14:40:35.047Z,28.13
2022-08-24T14:43:30.047Z,27.54
2022-08-24T14:46:12.215Z,27.48
2022-08-24T14:48:49.119Z,27.64
2022-08-24T14:51:34.975Z,27.10
2022-08-24T14:54:17.043Z,27.78
2022-08-24T14:56:56.922Z,27.94
2022-08-24T14:59:38.819Z,28.16
2022-08-24T15:02:43.939Z,28.01
2022-08-24T15:05:22.237Z,27.72
2022-08-24T15:07:56.956Z,27.26
2022-08-24T15:10:28.758Z,27.71
2022-08-24T15:13:03.525Z,28.23
2022-08-24T15:15:36.223Z,27.62
2022-08-24T15:18:15.622Z,28.26
2022-08-24T15:21:04.023Z,27.23
2022-08-24T15:23:46.463Z,27.49
2022-08-24T15:26:19.942Z,27.42
2022-08-24T15:28:56.569Z,27.35
2022-08-24T15:31:29.023Z,27.31
2022-08-24T15:34:00.156Z,27.89
2022-08-24T15:36:30.044Z,28.02
2022-08-24T15:38:58.040Z,27.73
2022-08-24T15:41:30.897Z,27.93
2022-08-24T15:44:00.998Z,27.52
2022-08-24T15:46:32.844Z,27.34
2022-08-24T15:49:05.374Z,27.04
2022-08-24T15:51:44.655Z,27.10
2022-08-24T15:54:30.007Z,27.08
2022-08-24T15:57:00.636Z,27.38
2022-08-24T15:59:31.772Z,26.65
2022-08-24T16:02:33.269Z,27.01
2022-08-24T16:05:14.331Z,27.28
2022-08-24T16:08:07.563Z,27.34
2022-08-24T16:10:39.116Z,27.49
2022-08-24T16:13:29.369Z,27.76
2022-08-24T16:16:03.440Z,27.57
2022-08-24T16:18:49.033Z,27.55
2022-08-24T16:21:22.374Z,27.06
2022-08-24T16:23:56.622Z,26.41
2022-08-24T16:26:28.965Z,26.27
2022-08-24T16:28:57.545Z,26.71
2022-08-24T16:31:45.151Z,26.41
2022-08-24T16:34:21.144Z,26.23
2022-08-24T16:36:50.607Z,26.13
2022-08-24T16:39:18.166Z,26.41
2022-08-24T16:41:45.751Z,26.44
2022-08-24T16:44:13.556Z,26.11
2022-08-24T16:46:41.363Z,26.12
2022-08-24T16:49:12.714Z,26.63
2022-08-24T16:51:45.156Z,26.68
2022-08-24T16:54:14.882Z,26.76
2022-08-24T16:56:43.117Z,27.51
2022-08-24T16:59:25.171Z,27.77
2022-08-24T17:01:52.741Z,27.57
2022-08-24T17:04:20.474Z,27.86
2022-08-24T17:06:49.766Z,27.89
2022-08-24T17:09:20.287Z,27.91
2022-08-24T17:11:48.023Z,28.25
2022-08-24T17:14:17.040Z,28.04
2022-08-24T17:16:44.809Z,27.99
2022-08-24T17:19:15.436Z,28.16
2022-08-24T17:21:45.538Z,28.12
2022-08-24T17:24:13.381Z,27.84
2022-08-24T17:26:44.937Z,27.68
2022-08-24T17:29:18.433Z,27.70
2022-08-24T17:31:49.721Z,28.04
2022-08-24T17:34:17.931Z,28.40
2022-08-24T17:36:46.183Z,28.03
2022-08-24T17:39:15.368Z,28.08
2022-08-24T17:41:44.607Z,28.19
2022-08-24T17:44:20.970Z,28.21
2022-08-24T17:46:50.352Z,28.01
2022-08-24T17:49:18.321Z,27.80
2022-08-24T17:51:45.939Z,27.70
2022-08-24T17:54:13.589Z,27.01
2022-08-24T17:56:41.460Z,26.43
2022-08-24T17:59:23.522Z,25.92
2022-08-24T18:01:52.187Z,25.88
2022-08-24T18:04:20.942Z,25.96
2022-08-24T18:06:49.372Z,25.91
2022-08-24T18:09:28.718Z,25.84
2022-08-24T18:11:57.455Z,25.56
2022-08-24T18:14:26.751Z,25.54
2022-08-24T18:16:57.364Z,25.42
2022-08-24T18:19:26.426Z,25.31
2022-08-24T18:21:54.299Z,25.11
2022-08-24T18:24:21.916Z,25.02
2022-08-24T18:26:50.238Z,24.81
2022-08-24T18:29:20.909Z,24.67
2022-08-24T18:31:50.454Z,24.41
2022-08-24T18:34:21.725Z,24.36
2022-08-24T18:36:49.638Z,24.26
2022-08-24T18:39:17.287Z,23.78
2022-08-24T18:41:49.203Z,23.87
2022-08-24T18:44:19.495Z,23.87
2022-08-24T18:46:47.817Z,23.78
2022-08-24T18:49:17.123Z,23.87
2022-08-24T18:51:45.234Z,23.66
2022-08-24T18:54:16.385Z,23.56
2022-08-24T18:56:45.256Z,23.52
2022-08-24T18:59:15.083Z,23.33
2022-08-24T19:02:01.675Z,23.26
2022-08-24T19:04:33.499Z,22.99
2022-08-24T19:07:01.613Z,22.81
2022-08-24T19:09:33.984Z,22.97
2022-08-24T19:12:02.348Z,22.83
2022-08-24T19:14:29.836Z,22.77
2022-08-24T19:16:57.722Z,22.78
2022-08-24T19:19:25.232Z,22.74
2022-08-24T19:21:54.980Z,22.62
2022-08-24T19:24:26.203Z,22.49
2022-08-24T19:26:54.009Z,22.29
2022-08-24T19:29:38.919Z,22.31
2022-08-24T19:32:22.047Z,22.30
2022-08-24T19:34:50.310Z,22.23
2022-08-24T19:37:19.655Z,22.06
2022-08-24T19:39:47.799Z,22.00
2022-08-24T19:42:17.162Z,22.09
2022-08-24T19:45:02.401Z,21.75
2022-08-24T19:47:34.208Z,21.88
2022-08-24T19:50:02.296Z,21.71
2022-08-24T19:52:33.559Z,21.51
2022-08-24T19:55:01.978Z,21.43
2022-08-24T19:57:36.281Z,21.76
2022-08-24T20:00:20.193Z,21.74
2022-08-24T20:02:48.955Z,21.73
2022-08-24T20:05:17.917Z,21.58
2022-08-24T20:07:47.717Z,21.61
2022-08-24T20:10:17.306Z,21.60
2022-08-24T20:12:44.834Z,21.59
2022-08-24T20:15:13.309Z,21.58
2022-08-24T20:17:41.410Z,20.94
2022-08-24T20:20:11.798Z,20.83
2022-08-24T20:22:39.395Z,20.83
2022-08-24T20:25:09.304Z,20.49
2022-08-24T20:27:37.356Z,20.11
2022-08-24T20:30:06.321Z,19.81
2022-08-24T20:32:33.859Z,19.40
2022-08-24T20:35:02.585Z,19.78
2022-08-24T20:37:32.828Z,20.51
2022-08-24T20:40:01.302Z,20.11
2022-08-24T20:42:31.627Z,20.43
2022-08-24T20:45:00.391Z,20.70
2022-08-24T20:47:28.154Z,20.67
2022-08-24T20:49:55.976Z,20.61
2022-08-24T20:52:23.467Z,20.54
2022-08-24T20:54:50.972Z,20.57
2022-08-24T20:57:21.399Z,20.11
2022-08-24T20:59:50.237Z,20.53
2022-08-24T21:02:17.751Z,20.18
2022-08-24T21:04:45.446Z,19.52
2022-08-24T21:07:13.500Z,19.36
2022-08-24T21:09:41.236Z,19.26
2022-08-24T21:12:09.221Z,18.73
2022-08-24T21:14:36.758Z,18.98
2022-08-24T21:17:06.736Z,19.28
2022-08-24T21:19:34.404Z,19.36
2022-08-24T21:22:02.147Z,19.66
2022-08-24T21:24:29.666Z,19.94
2022-08-24T21:26:57.187Z,20.19
2022-08-24T21:29:24.701Z,20.42
2022-08-24T21:32:10.098Z,20.50
2022-08-24T21:34:41.860Z,20.58
2022-08-24T21:37:10.579Z,20.34
2022-08-24T21:39:38.382Z,20.24
2022-08-24T21:42:06.470Z,20.30
2022-08-24T21:44:34.144Z,20.16
2022-08-24T21:47:03.627Z,19.61
2022-08-24T21:49:31.294Z,19.50
2022-08-24T21:52:00.128Z,19.74
2022-08-24T21:54:27.675Z,19.98
2022-08-24T21:56:55.262Z,19.99
2022-08-24T21:59:22.923Z,20.36
2022-08-24T22:01:50.478Z,20.27
2022-08-24T22:04:18.194Z,20.02
2022-08-24T22:06:45.791Z,19.93
2022-08-24T22:09:14.872Z,20.19
2022-08-24T22:11:42.716Z,20.47
2022-08-24T22:14:10.355Z,20.12
2022-08-24T22:16:38.043Z,20.49
2022-08-24T22:19:05.875Z,20.44
2022-08-24T22:21:36.176Z,20.33
2022-08-24T22:24:04.738Z,20.46
2022-08-24T22:26:34.142Z,20.45
2022-08-24T22:29:02.433Z,20.37
2022-08-24T22:31:32.833Z,20.43
2022-08-24T22:34:02.862Z,20.41
2022-08-24T22:36:30.910Z,20.45
2022-08-24T22:38:59.805Z,20.38
2022-08-24T22:41:28.140Z,20.33
2022-08-24T22:44:19.864Z,19.89
2022-08-24T22:46:47.844Z,19.93
2022-08-24T22:49:15.573Z,20.14
2022-08-24T22:51:43.793Z,20.12
2022-08-24T22:54:11.972Z,20.18
2022-08-24T22:56:42.816Z,20.27
2022-08-24T22:59:15.995Z,20.06
2022-08-24T23:01:45.726Z,19.98
2022-08-24T23:04:15.712Z,20.09
2022-08-24T23:06:43.681Z,20.17
2022-08-24T23:09:12.029Z,20.11
2022-08-24T23:11:40.126Z,19.92
2022-08-24T23:14:09.037Z,20.11
2022-08-24T23:16:40.671Z,20.19
2022-08-24T23:19:26.515Z,20.16
2022-08-24T23:21:54.774Z,19.75
2022-08-24T23:24:23.066Z,19.54
2022-08-24T23:26:50.983Z,20.00
2022-08-24T23:29:18.980Z,20.10
2022-08-24T23:31:48.766Z,19.93
2022-08-24T23:34:17.397Z,19.86
2022-08-24T23:36:45.961Z,20.16
2022-08-24T23:39:14.407Z,20.03
2022-08-24T23:41:44.202Z,19.92
2022-08-24T23:44:16.260Z,19.76
2022-08-24T23:46:45.258Z,19.59
2022-08-24T23:49:16.743Z,19.31
2022-08-24T23:51:44.289Z,19.04
2022-08-24T23:54:12.319Z,19.27
2022-08-24T23:56:43.166Z,19.15
2022-08-24T23:59:13.815Z,19.87
